Latest Weather Observations for Williamson

IDQ60801

Issued at 11:05 am EST Monday 24 November 2014 (issued every 30 minutes, with the page automatically refreshed every 10 minutes)

About weather observations | Map of weather stations | Latest weather observations for QLD | Other Formats
Station Details ID: 033195 Name: WILLIAMSON Lat: -22.47 Lon: 150.18 Height: 27.6 m
Data from the previous 72 hours. | See also: Recent months at Williamson
Date/Time
EST
Temp
°C
App
Temp
°C
Dew
Point
Rel
Hum
%
Delta-T
°C
Wind Press
QNH
hPa
Press
MSL
hPa
Rain
since 9 am
mm
Dir
 
Spd
km/h
Gust
km/h
Spd
kts
Gust
kts
24/11:00am 30.1 29.9 18.5 49 7.5 ENE 17 30 9 16 1015.6 1015.4 0.0
24/10:30am 31.1 31.2 19.1 48 7.8 NE 17 28 9 15 1015.9 1015.7 0.0
24/10:00am 29.4 29.6 19.4 55 6.5 NE 17 32 9 17 1016.2 1016.0 0.0
24/09:30am 27.7 27.8 19.2 60 5.5 NE 17 24 9 13 1016.6 1016.4 0.0
24/09:00am 28.2 29.2 19.4 59 5.7 NNE 13 20 7 11 1016.5 1016.3 0.0
24/08:30am 26.8 28.1 20.2 67 4.3 NE 13 19 7 10 1016.6 1016.4 0.0
24/08:00am 27.3 28.7 20.4 66 4.5 NE 13 20 7 11 1016.5 1016.3 0.0
24/07:30am 27.0 28.4 20.3 66 4.4 NE 13 19 7 10 1016.4 1016.2 0.0
24/07:00am 26.2 28.2 20.7 71 3.6 NE 11 19 6 10 1016.3 1016.1 0.0
24/06:30am 24.6 28.8 20.9 80 2.4 CALM 0 0 0 0 1016.2 1016.0 0.0
24/06:00am 21.1 24.5 19.4 90 1.1 CALM 0 6 0 3 1015.9 1015.7 0.0
24/05:30am 20.3 22.3 18.8 91 0.9 S 6 7 3 4 1015.7 1015.5 0.0
24/05:00am 20.3 23.4 18.6 90 1.1 CALM 0 0 0 0 1015.4 1015.2 0.0
24/04:30am 20.7 22.8 19.0 90 1.1 S 6 7 3 4 1015.1 1014.9 0.0
24/04:00am 20.9 23.0 19.0 89 1.2 S 6 9 3 5 1015.0 1014.8 0.0
24/03:30am 20.8 22.6 18.7 88 1.3 S 7 11 4 6 1014.8 1014.6 0.0
24/03:00am 20.8 22.9 18.9 89 1.2 S 6 11 3 6 1014.8 1014.6 0.0
24/02:30am 21.3 23.4 19.4 89 1.2 SSE 7 9 4 5 1014.9 1014.7 0.0
24/02:00am 21.2 23.6 18.8 86 1.5 SSE 4 9 2 5 1015.0 1014.8 0.0
24/01:30am 21.4 24.6 18.8 85 1.6 CALM 0 0 0 0 1015.1 1014.9 0.0
24/01:00am 21.8 25.1 19.0 84 1.8 CALM 0 0 0 0 1015.4 1015.2 0.0
24/12:30am 21.9 25.2 19.1 84 1.8 CALM 0 0 0 0 1015.7 1015.5 0.0
24/12:00am 22.2 25.6 19.4 84 1.8 CALM 0 0 0 0 1016.0 1015.8 0.0
 
Date/Time
EST
Temp
°C
App
Temp
°C
Dew
Point
Rel
Hum
%
Delta-T
°C
Wind Press
QNH
hPa
Press
MSL
hPa
Rain
since 9 am
mm
Dir
 
Spd
km/h
Gust
km/h
Spd
kts
Gust
kts
23/11:30pm 22.3 25.7 19.3 83 1.9 CALM 0 0 0 0 1016.1 1015.9 0.0
23/11:00pm 22.7 25.4 19.5 82 2.0 ESE 4 7 2 4 1016.2 1016.0 0.0
23/10:30pm 22.5 24.5 19.1 81 2.2 E 7 9 4 5 1016.4 1016.2 0.0
23/10:00pm 23.0 25.2 19.2 79 2.4 SE 6 9 3 5 1016.5 1016.3 0.0
23/09:30pm 23.9 26.4 19.8 78 2.6 E 6 9 3 5 1016.2 1016.0 0.0
23/09:00pm 24.1 26.6 19.8 77 2.8 ENE 6 9 3 5 1015.8 1015.6 0.0
23/08:30pm 24.3 26.7 19.6 75 3.0 NE 6 9 3 5 1015.7 1015.5 0.0
23/08:00pm 24.9 27.1 19.7 73 3.4 NE 7 13 4 7 1015.5 1015.3 0.0
23/07:30pm 25.2 27.0 19.6 71 3.6 NE 9 13 5 7 1015.2 1015.0 0.0
23/07:00pm 25.5 27.3 19.6 70 3.8 NE 9 15 5 8 1014.9 1014.7 0.0
23/06:30pm 26.1 28.0 19.7 68 4.1 NE 9 17 5 9 1014.6 1014.4 0.0
23/06:00pm 26.9 27.1 19.3 63 4.9 NE 17 28 9 15 1014.1 1013.9 0.0
23/05:30pm 27.7 27.7 19.0 59 5.6 NE 17 28 9 15 1013.8 1013.6 0.0
23/05:00pm 28.4 28.1 19.1 57 6.0 NE 19 32 10 17 1013.7 1013.5 0.0
23/04:30pm 28.6 28.2 19.0 56 6.2 NNE 19 33 10 18 1013.7 1013.5 0.0
23/04:00pm 29.3 29.1 19.3 55 6.5 NNE 19 30 10 16 1013.6 1013.4 0.0
23/03:30pm 29.4 29.7 19.7 56 6.3 NNE 17 30 9 16 1013.8 1013.6 0.0
23/03:00pm 29.6 29.5 19.6 55 6.5 NE 19 33 10 18 1014.0 1013.8 0.0
23/02:30pm 30.0 30.5 20.0 55 6.6 NE 17 28 9 15 1014.2 1014.0 0.0
23/02:00pm 30.7 30.8 20.0 52 7.1 NE 19 30 10 16 1014.5 1014.3 0.0
23/01:30pm 30.9 31.5 20.2 53 7.1 NNE 17 28 9 15 1014.8 1014.6 0.0
23/01:00pm 29.5 29.6 19.2 54 6.7 NNE 17 30 9 16 1015.1 1014.9 0.0
23/12:30pm 29.6 29.0 18.4 51 7.2 NNE 19 28 10 15 1015.5 1015.3 0.0
23/12:00pm 30.3 30.1 18.4 49 7.7 NNE 17 28 9 15 1015.8 1015.6 0.0
23/11:30am 31.1 31.7 19.4 49 7.7 NNE 15 26 8 14 1016.1 1015.9 0.0
23/11:00am 30.3 30.8 19.3 51 7.2 NNE 15 30 8 16 1016.6 1016.4 0.0
23/10:30am 29.9 29.8 18.7 51 7.2 NE 17 26 9 14 1016.8 1016.6 0.0
23/10:00am 29.7 29.5 17.5 48 7.7 NNE 15 22 8 12 1016.9 1016.7 0.0
23/09:30am 30.3 31.1 19.0 50 7.3 ENE 13 22 7 12 1017.0 1016.8 0.0
23/09:00am 29.1 29.8 18.8 53 6.6 N 13 22 7 12 1016.9 1016.7 0.0
23/08:30am 28.5 29.7 19.1 56 6.1 N 11 19 6 10 1017.0 1016.8 0.0
23/08:00am 28.1 29.4 20.1 62 5.2 NE 13 19 7 10 1016.9 1016.7 0.0
23/07:30am 27.5 28.7 19.8 63 5.0 ENE 13 19 7 10 1016.8 1016.6 0.0
23/07:00am 27.3 29.9 20.4 66 4.5 NNE 7 13 4 7 1016.6 1016.4 0.0
23/06:30am 26.4 29.4 21.2 73 3.4 NE 7 11 4 6 1016.3 1016.1 0.0
23/06:00am 24.3 28.5 21.0 82 2.2 CALM 0 0 0 0 1016.0 1015.8 0.0
23/05:30am 22.4 25.6 20.5 89 1.2 E 4 6 2 3 1015.5 1015.3 0.0
23/05:00am 22.4 26.3 20.3 88 1.4 CALM 0 6 0 3 1015.2 1015.0 0.0
23/04:30am 22.9 26.2 20.8 88 1.4 NE 4 9 2 5 1014.8 1014.6 0.0
23/04:00am 23.1 26.3 20.6 86 1.6 ENE 4 7 2 4 1014.6 1014.4 0.0
23/03:30am 23.2 27.3 20.7 86 1.6 CALM 0 0 0 0 1014.7 1014.5 0.0
23/03:00am 23.9 27.8 21.2 85 1.8 NE 2 7 1 4 1014.7 1014.5 0.0
23/02:30am 24.2 26.9 21.3 84 1.9 NE 9 13 5 7 1014.5 1014.3 0.0
23/02:00am 24.5 27.6 21.4 83 2.0 NE 7 13 4 7 1014.6 1014.4 0.0
23/01:30am 24.6 27.4 21.5 83 2.1 NE 9 17 5 9 1014.6 1014.4 0.0
23/01:00am 24.8 28.0 21.7 83 2.1 NE 7 11 4 6 1014.8 1014.6 0.0
23/12:30am 25.0 28.2 21.7 82 2.2 NE 7 11 4 6 1015.0 1014.8 0.0
23/12:00am 25.2 28.2 21.9 82 2.2 NNE 9 19 5 10 1015.2 1015.0 0.0
 
Date/Time
EST
Temp
°C
App
Temp
°C
Dew
Point
Rel
Hum
%
Delta-T
°C
Wind Press
QNH
hPa
Press
MSL
hPa
Rain
since 9 am
mm
Dir
 
Spd
km/h
Gust
km/h
Spd
kts
Gust
kts
22/11:30pm 25.2 27.4 21.9 82 2.2 NNE 13 20 7 11 1015.2 1015.0 0.0
22/11:00pm 25.3 28.3 22.0 82 2.2 NNE 9 17 5 9 1015.4 1015.2 0.0
22/10:30pm 25.4 28.5 22.1 82 2.2 NE 9 15 5 8 1015.5 1015.3 0.0
22/10:00pm 25.6 28.6 21.9 80 2.5 NE 9 13 5 7 1015.6 1015.4 0.0
22/09:30pm 25.7 28.6 21.8 79 2.6 NNE 9 15 5 8 1015.5 1015.3 0.0
22/09:00pm 25.8 29.3 22.1 80 2.5 NNE 7 11 4 6 1015.4 1015.2 0.0
22/08:30pm 25.8 28.9 22.1 80 2.5 NE 9 13 5 7 1015.1 1014.9 0.0
22/08:00pm 25.8 28.8 21.9 79 2.6 NE 9 15 5 8 1014.7 1014.5 0.0
22/07:30pm 25.8 28.9 22.1 80 2.5 NNE 9 15 5 8 1014.4 1014.2 0.0
22/07:00pm 26.1 28.9 21.5 76 3.1 NNE 9 15 5 8 1014.1 1013.9 0.0
22/06:30pm 26.3 28.5 21.1 73 3.4 NNE 11 20 6 11 1013.7 1013.5 0.0
22/06:00pm 26.9 28.7 21.2 71 3.8 NNE 13 22 7 12 1013.3 1013.1 0.0
22/05:30pm 27.5 29.1 21.5 70 4.0 NNE 15 20 8 11 1012.9 1012.7 0.0
22/05:00pm 28.0 29.4 21.1 66 4.6 NNE 15 24 8 13 1012.5 1012.3 0.0
22/04:30pm 28.8 29.7 20.8 62 5.3 NE 17 28 9 15 1012.3 1012.1 0.0
22/04:00pm 29.2 30.4 21.4 63 5.2 NE 17 26 9 14 1012.3 1012.1 0.0
22/03:30pm 29.5 29.8 20.4 58 6.0 NNE 19 26 10 14 1012.2 1012.0 0.0
22/03:00pm 31.6 31.9 19.6 49 7.9 NE 17 28 9 15 1012.4 1012.2 0.0
22/02:30pm 30.8 30.7 18.8 48 7.8 NE 17 26 9 14 1012.7 1012.5 0.0
22/02:00pm 31.6 32.5 19.2 47 8.1 NNE 13 22 7 12 1013.1 1012.9 0.0
22/01:30pm 31.5 31.8 18.8 46 8.3 NNE 15 22 8 12 1013.6 1013.4 0.0
22/01:00pm 31.1 30.9 18.5 47 8.1 NE 17 24 9 13 1014.1 1013.9 0.0
22/12:30pm 31.3 31.1 19.3 49 7.9 NE 19 28 10 15 1014.3 1014.1 0.0
22/12:00pm 31.1 31.0 18.8 48 8.0 NE 17 24 9 13 1014.8 1014.6 0.0
22/11:30am 31.1 30.9 18.5 47 8.1 NE 17 26 9 14 1015.1 1014.9 0.0
22/11:00am 30.8 31.7 20.1 53 7.1 N 15 22 8 12 1015.5 1015.3 0.0
22/10:30am 31.1 32.3 19.8 51 7.4 ENE 13 20 7 11 1015.7 1015.5 0.0
22/10:00am 30.5 31.4 20.1 53 6.9 NE 15 22 8 12 1016.0 1015.8 0.0
22/09:30am 29.5 30.4 20.1 57 6.2 NNE 15 28 8 15 1016.1 1015.9 0.0
22/09:00am 29.7 30.7 20.3 57 6.2 NNE 15 24 8 13 1016.1 1015.9 0.0
22/08:30am 29.2 30.3 20.4 59 5.8 NE 15 26 8 14 1016.1 1015.9 0.0
22/08:00am 28.0 29.2 20.6 64 4.9 NNE 15 24 8 13 1016.3 1016.1 0.0
22/07:30am 27.9 29.9 20.7 65 4.8 NE 11 17 6 9 1016.1 1015.9 0.0
22/07:00am 27.3 30.1 21.6 71 3.8 NE 9 17 5 9 1015.9 1015.7 0.0
22/06:30am 26.0 28.9 21.7 77 2.9 N 9 15 5 8 1015.6 1015.4 0.0
22/06:00am 25.6 28.9 21.9 80 2.5 NNE 7 11 4 6 1014.9 1014.7 0.0
22/05:30am 24.4 28.3 21.9 86 1.7 NNE 4 7 2 4 1014.5 1014.3 0.0
22/05:00am 24.4 27.7 21.5 84 1.9 ENE 6 9 3 5 1014.0 1013.8 0.0
22/04:30am 24.9 27.6 21.4 81 2.3 NNE 9 15 5 8 1013.8 1013.6 0.0
22/04:00am 24.9 27.6 21.4 81 2.3 NNE 9 15 5 8 1013.4 1013.2 0.0
22/03:30am 25.1 27.4 21.4 80 2.4 NNE 11 19 6 10 1013.0 1012.8 0.0
22/03:00am 25.0 27.4 21.5 81 2.3 NNE 11 19 6 10 1013.0 1012.8 0.0
22/02:30am 25.3 27.9 22.0 82 2.2 NNE 11 20 6 11 1013.2 1013.0 0.0
22/02:00am 25.1 27.5 21.6 81 2.3 N 11 20 6 11 1013.3 1013.1 0.0
22/01:30am 25.2 27.7 21.7 81 2.3 NNE 11 17 6 9 1013.5 1013.3 0.0
22/01:00am 25.2 27.6 21.5 80 2.5 N 11 19 6 10 1013.7 1013.5 0.0
22/12:30am 25.3 28.4 22.2 83 2.1 NNE 9 22 5 12 1014.2 1014.0 0.0
22/12:00am 25.3 27.9 22.0 82 2.2 NNE 11 20 6 11 1014.4 1014.2 0.0
 
Date/Time
EST
Temp
°C
App
Temp
°C
Dew
Point
Rel
Hum
%
Delta-T
°C
Wind Press
QNH
hPa
Press
MSL
hPa
Rain
since 9 am
mm
Dir
 
Spd
km/h
Gust
km/h
Spd
kts
Gust
kts
21/11:30pm 25.3 28.2 22.4 84 1.9 NNE 11 17 6 9 1014.6 1014.4 0.0
21/11:00pm 25.4 27.8 22.3 83 2.1 NE 13 22 7 12 1014.7 1014.5 0.0
21/10:30pm 25.7 28.4 22.2 81 2.3 NNE 11 17 6 9 1014.8 1014.6 0.0
21/10:00pm 25.7 28.3 22.0 80 2.5 NNE 11 24 6 13 1014.8 1014.6 0.0
21/09:30pm 25.8 29.3 22.1 80 2.5 NNE 7 13 4 7 1014.6 1014.4 0.0
21/09:00pm 25.6 28.4 22.3 82 2.2 NNE 11 20 6 11 1014.3 1014.1 0.0
21/08:30pm 25.5 28.4 21.8 80 2.5 NNE 9 19 5 10 1014.0 1013.8 0.0
21/08:00pm 25.5 28.4 21.8 80 2.5 NNE 9 13 5 7 1013.9 1013.7 0.0
21/07:30pm 25.6 28.3 21.3 77 2.8 NNE 9 19 5 10 1013.8 1013.6 0.0
21/07:00pm 25.8 28.4 21.2 76 3.0 NNE 9 15 5 8 1013.3 1013.1 0.0
21/06:30pm 26.2 28.2 20.7 71 3.6 NNE 11 19 6 10 1013.2 1013.0 0.0
21/06:00pm 26.8 28.5 20.9 70 3.9 NNE 13 19 7 10 1013.1 1012.9 0.0
21/05:30pm 27.4 28.5 20.5 66 4.5 NE 15 26 8 14 1012.7 1012.5 0.0
21/05:00pm 28.5 30.1 20.8 63 5.1 NNE 13 26 7 14 1012.6 1012.4 0.0
21/04:30pm 28.3 29.3 20.3 62 5.3 N 15 22 8 12 1012.5 1012.3 0.0
21/04:00pm 28.8 29.5 20.5 61 5.5 NNE 17 28 9 15 1012.4 1012.2 0.0
21/03:30pm 29.9 30.6 19.6 54 6.7 NNE 15 22 8 12 1012.5 1012.3 0.0
21/03:00pm 29.5 29.5 19.8 56 6.4 NE 19 28 10 15 1012.6 1012.4 0.0
21/02:30pm 30.3 31.1 19.9 53 6.8 NNE 15 26 8 14 1012.9 1012.7 0.0
21/02:00pm 30.2 31.1 19.2 51 7.2 N 13 22 7 12 1013.1 1012.9 0.0
21/01:30pm 31.3 31.9 18.6 46 8.2 N 13 22 7 12 1013.5 1013.3 0.0
21/01:00pm 30.3 29.8 17.7 46 8.0 N 17 26 9 14 1014.1 1013.9 0.0
21/12:30pm 30.5 30.3 18.6 49 7.7 N 17 28 9 15 1014.5 1014.3 0.0
21/12:00pm 30.4 30.8 18.2 48 7.8 N 13 24 7 13 1014.9 1014.7 0.0
21/11:30am 30.1 30.8 18.8 50 7.3 N 13 22 7 12 1015.3 1015.1 0.0

Other Formats:

Comma delimited format used in spreadsheet applications
http://www.bom.gov.au/fwo/IDQ60801/IDQ60801.95370.axf

JavaScript Object Notation format (JSON) in row-major order
http://www.bom.gov.au/fwo/IDQ60801/IDQ60801.95370.json